Forside
METAR-TAF:

METAR-TAF

Lufthavne :

Sumburgh, Shetlandsøerne, Skotland

Breddekreds: 59-53N, længdekreds: 001-18W, højde: 5 m

Aktuelle vejr

Denne rapport blev lavet for 20 minutter siden, kl. 13:20 UTC
Vind 16 kt fra vestnordvest
Temperatur 8°C
Fugtighed 71%
Tryk 1026 hPa
Sigt 10 km eller mere
Nogle få skyer i en højde af 2000 ft
Spredte skyer i en højde af 3700 ft
byger i nærheden

METAR: EGPB 311320Z 29016KT 9999 VCSH FEW020 SCT037 08/03 Q1026

Tid: 14:40 (13:40 UTC)

Vejrudsigter

Denne rapport blev lavet for 2 timer og 37 minutter siden, kl. 11:03 UTC
Foreløbig gælder fra 31 på 12 UTC til 31 på 21 UTC
Vind 17 kt fra vest
Sigt 10 km eller mere
Spredte skyer i en højde af 2500 ft
Midlertidig
fra 31 på 12 UTC til 31 på 21 UTC
Sigt: 6000 m
Brudte skyer i en højde af 1000 ft
regnbyger

TAF: EGPB 311103Z 3112/3121 27017KT 9999 SCT025 TEMPO 3112/3121 6000 SHRA BKN010

Vejrobservationer og prognoser fra mere end 4000 lufthavne (METAR og TAF).

De gule og røde prikker repræsenterer de meteorologiske stationer.

Flyt musen over at se navnet på stationen.

Så klik over at se vejr observationer og prognoser.

At skifte det kort: Klik på de grønne knapper med et sort kors for at zoome ind; på den grønne knap med en bindestreg for at zoome ud; eller på de grønne pile for tilstødende kort.


METAR-TAF: